Time;durP1;ratioP1;P1;durP2;ratioP2;P2;SDS_P1;SDS_P2;PMS_P1;PMS_P2;Temp;Humidity;BMP_temperature;BMP_pressure;BME280_temperature;BME280_humidity;BME280_pressure;Samples;Min_cycle;Max_cycle;Signal;HPM_P1;HPM_P2
2021/03/20 00:00:37;;;;;;;143.03;69.90;;;;;;;-1.08;79.44;99331.42;4271350;81;21574;-84
2021/03/20 00:06:47;;;;;;;150.40;72.53;;;;;;;-1.06;79.40;99331.91;4236753;83;21316;-82
2021/03/20 00:12:50;;;;;;;145.63;67.83;;;;;;;-1.07;79.46;99335.16;4247370;83;21218;-82
2021/03/20 00:18:52;;;;;;;123.77;58.20;;;;;;;-1.11;79.31;99334.12;4239203;83;21238;-83
2021/03/20 00:24:54;;;;;;;121.23;59.60;;;;;;;-1.20;79.35;99337.75;4232278;83;21757;-82
2021/03/20 00:31:03;;;;;;;100.73;49.13;;;;;;;-1.26;79.57;99345.09;4235848;83;21800;-82
2021/03/20 00:37:05;;;;;;;100.60;49.23;;;;;;;-1.25;79.59;99340.53;4242511;83;21362;-82
2021/03/20 00:43:07;;;;;;;97.20;46.50;;;;;;;-1.25;79.72;99337.28;4241749;83;21690;-82
2021/03/20 00:49:09;;;;;;;94.90;44.97;;;;;;;-1.24;79.73;99338.90;4238923;83;21182;-83
2021/03/20 01:01:32;;;;;;;88.43;43.00;;;;;;;-1.21;80.13;99345.03;4545957;75;24406;-81
2021/03/20 01:07:34;;;;;;;84.60;39.90;;;;;;;-1.16;80.01;99348.19;4511886;79;21157;-82
2021/03/20 01:13:35;;;;;;;56.07;30.37;;;;;;;-1.18;79.98;99349.83;4512634;78;21197;-83
2021/03/20 01:19:37;;;;;;;32.27;15.70;;;;;;;-1.31;79.79;99355.91;4512160;77;21188;-81
2021/03/20 01:25:39;;;;;;;28.57;14.70;;;;;;;-1.40;80.09;99358.17;4508831;77;21771;-82
2021/03/20 01:31:45;;;;;;;26.90;14.00;;;;;;;-1.52;79.69;99365.31;4497122;77;21136;-82
2021/03/20 01:37:47;;;;;;;26.80;14.33;;;;;;;-1.58;79.72;99359.73;4507052;77;21169;-82
2021/03/20 01:43:52;;;;;;;21.70;11.67;;;;;;;-1.60;79.84;99363.27;4488634;77;21140;-82
2021/03/20 01:49:57;;;;;;;;;;;;;;;-1.64;79.75;99363.56;4496286;77;21719;-83
2021/03/20 01:55:59;;;;;;;15.43;9.63;;;;;;;-1.68;79.74;99363.33;4491690;77;20188;-82
2021/03/20 02:02:00;;;;;;;15.27;9.50;;;;;;;-1.78;79.51;99363.99;4406311;78;21227;-82
2021/03/20 02:08:06;;;;;;;18.67;9.70;;;;;;;-1.86;79.40;99372.13;4378692;79;21807;-83
2021/03/20 02:14:25;;;;;;;13.73;8.03;;;;;;;-1.90;80.00;99385.88;4360096;79;21156;-82
2021/03/20 02:20:58;;;;;;;12.50;7.73;;;;;;;-1.98;79.56;99388.36;4367481;79;21193;-82
2021/03/20 02:27:24;;;;;;;14.93;8.07;;;;;;;-2.03;79.52;99389.22;4358577;79;21715;-84
2021/03/20 02:33:43;;;;;;;14.83;8.83;;;;;;;-2.01;79.42;99395.64;4357419;79;21177;-84
2021/03/20 02:39:59;;;;;;;15.30;9.13;;;;;;;-2.03;79.53;99396.45;4357948;79;21191;-83
2021/03/20 02:46:27;;;;;;;17.35;10.20;;;;;;;-2.06;79.50;99405.07;4362533;81;21180;-84
2021/03/20 02:52:46;;;;;;;19.70;10.57;;;;;;;-2.11;79.44;99407.27;4355072;79;21196;-83
2021/03/20 02:59:12;;;;;;;28.13;14.57;;;;;;;-2.06;79.56;99407.75;4349750;79;21180;-84
2021/03/20 03:05:23;;;;;;;21.20;10.70;;;;;;;-2.07;79.44;99430.31;4365011;79;21169;-83
2021/03/20 03:11:53;;;;;;;27.30;12.37;;;;;;;-2.05;79.37;99429.49;4361359;79;21215;-82
2021/03/20 03:18:12;;;;;;;20.47;11.60;;;;;;;-2.09;79.33;99434.61;4360007;79;21672;-84
2021/03/20 03:24:18;;;;;;;51.97;18.50;;;;;;;-2.09;79.43;99445.34;4361000;79;21212;-84
2021/03/20 03:30:24;;;;;;;21.50;11.33;;;;;;;-2.08;79.27;99451.48;4362139;79;21148;-82
2021/03/20 03:36:29;;;;;;;31.25;14.30;;;;;;;-2.06;79.16;99456.04;4314781;81;21193;-82
2021/03/20 03:42:31;;;;;;;29.73;14.57;;;;;;;-2.13;79.13;99462.28;4349166;81;21206;-81
2021/03/20 03:48:33;;;;;;;19.30;11.33;;;;;;;-2.20;79.13;99473.86;4356420;79;21628;-82
2021/03/20 03:54:34;;;;;;;32.67;14.83;;;;;;;-2.29;78.91;99472.86;4360920;79;21218;-82
2021/03/20 04:00:44;;;;;;;12.20;6.47;;;;;;;-2.37;78.76;99484.18;4358254;79;21172;-83
2021/03/20 04:06:57;;;;;;;18.70;9.87;;;;;;;-2.46;79.04;99500.05;4339013;79;21627;-82
2021/03/20 04:13:15;;;;;;;14.67;7.07;;;;;;;-2.58;79.21;99509.50;4348195;79;21228;-82
2021/03/20 04:19:33;;;;;;;23.73;9.88;;;;;;;-2.71;79.50;99520.84;4272633;79;39170;-82
2021/03/20 04:26:06;;;;;;;12.63;7.13;;;;;;;-2.78;79.62;99529.71;4178221;84;21673;-81
2021/03/20 04:32:43;;;;;;;23.17;8.90;;;;;;;-2.80;79.87;99535.91;4179245;84;21181;-82
2021/03/20 04:38:45;;;;;;;;;;;;;;;-2.77;80.02;99545.52;4186662;84;21410;-83
2021/03/20 04:44:48;;;;;;;17.77;6.47;;;;;;;-2.60;80.35;99551.33;4232071;83;20907;-84
2021/03/20 04:50:57;;;;;;;14.17;6.00;;;;;;;-2.52;80.04;99560.69;4231106;83;21680;-82
2021/03/20 04:57:21;;;;;;;13.83;6.40;;;;;;;-2.58;79.72;99566.59;4232782;83;21211;-82
2021/03/20 05:03:31;;;;;;;14.40;5.70;;;;;;;-2.53;80.12;99579.17;4221329;83;21647;-82
2021/03/20 05:09:34;;;;;;;13.17;5.87;;;;;;;-2.39;80.06;99585.01;4223714;83;22368;-83
2021/03/20 05:15:36;;;;;;;23.27;7.23;;;;;;;-2.31;79.76;99588.98;4224014;83;21360;-83
2021/03/20 05:21:42;;;;;;;10.17;5.50;;;;;;;-2.48;79.58;99605.96;4223803;83;21215;-82
2021/03/20 05:27:43;;;;;;;16.23;5.80;;;;;;;-2.37;79.78;99608.86;4224872;83;22335;-82
2021/03/20 05:33:48;;;;;;;16.50;6.83;;;;;;;-2.33;79.70;99613.39;4223727;83;21322;-85
2021/03/20 05:39:53;;;;;;;14.73;7.43;;;;;;;-2.29;79.57;99625.19;4224105;83;21639;-84
2021/03/20 05:46:06;;;;;;;20.93;7.40;;;;;;;-2.36;79.61;99633.25;4226502;83;21203;-82
2021/03/20 05:52:35;;;;;;;16.37;7.23;;;;;;;-2.27;79.66;99643.69;4221305;83;21230;-82
2021/03/20 05:59:18;;;;;;;19.20;8.17;;;;;;;-2.18;79.59;99646.05;4223888;83;21215;-82
2021/03/20 06:05:31;;;;;;;17.40;6.13;;;;;;;-2.04;79.33;99653.22;4224863;83;21187;-82
2021/03/20 06:11:45;;;;;;;16.87;6.07;;;;;;;-2.00;78.04;99654.78;4221507;83;21199;-81
2021/03/20 06:18:05;;;;;;;77.23;24.40;;;;;;;-2.02;77.91;99658.31;4224349;83;21247;-82
2021/03/20 06:24:48;;;;;;;14.40;5.03;;;;;;;-2.09;77.22;99671.20;4225171;83;21674;-82
2021/03/20 06:30:58;;;;;;;13.17;4.93;;;;;;;-2.01;77.22;99677.34;4223456;83;21670;-83
2021/03/20 06:37:12;;;;;;;12.33;4.63;;;;;;;-1.98;76.77;99682.97;4227003;83;21674;-83
2021/03/20 06:43:17;;;;;;;17.73;5.50;;;;;;;-1.77;76.33;99688.46;4223917;83;21235;-85
2021/03/20 06:49:39;;;;;;;15.90;6.17;;;;;;;-1.63;76.01;99691.34;4226289;83;21184;-84
2021/03/20 06:55:46;;;;;;;16.23;6.93;;;;;;;-1.48;76.10;99692.58;4224806;83;21766;-82
2021/03/20 07:02:08;;;;;;;13.48;5.12;;;;;;;-1.04;75.41;99704.58;4161727;83;21362;-83
2021/03/20 07:08:45;;;;;;;25.40;9.73;;;;;;;-0.75;74.06;99709.44;4584783;76;22958;-83
2021/03/20 07:14:56;;;;;;;23.33;10.43;;;;;;;-0.74;73.77;99712.37;4486759;78;21682;-85
2021/03/20 07:21:04;;;;;;;31.70;10.80;;;;;;;-0.74;73.30;99721.25;4488147;78;21180;-83
2021/03/20 07:27:21;;;;;;;25.90;10.83;;;;;;;-0.77;73.38;99719.66;4483477;78;21512;-83
2021/03/20 07:33:34;;;;;;;23.83;9.87;;;;;;;-0.52;72.21;99724.23;4490590;78;21648;-83
2021/03/20 07:39:49;;;;;;;22.37;9.63;;;;;;;-0.89;72.03;99728.66;4489125;77;21204;-84
2021/03/20 07:45:57;;;;;;;23.23;10.93;;;;;;;-0.63;73.28;99731.36;4483565;78;21184;-84
2021/03/20 07:52:06;;;;;;;23.30;9.33;;;;;;;0.26;73.40;99740.01;4381172;80;21189;-84
2021/03/20 07:58:11;;;;;;;19.20;8.95;;;;;;;1.37;72.65;99738.02;4354727;80;21351;-84
2021/03/20 08:04:13;;;;;;;23.60;8.85;;;;;;;1.45;70.47;99741.92;4355227;80;21174;-85
2021/03/20 08:10:35;;;;;;;18.37;8.18;;;;;;;1.31;70.01;99747.30;4354131;80;21289;-84
2021/03/20 08:16:36;;;;;;;23.75;8.98;;;;;;;1.78;69.83;99746.16;4361268;80;21174;-85
2021/03/20 08:23:06;;;;;;;21.23;7.60;;;;;;;1.78;69.03;99758.85;4367217;80;21215;-84
2021/03/20 08:29:45;;;;;;;19.30;7.08;;;;;;;1.27;67.97;99753.55;4378156;80;21314;-84
2021/03/20 08:36:07;;;;;;;15.28;6.20;;;;;;;0.69;66.56;99759.09;4323508;80;21233;-85
2021/03/20 08:42:30;;;;;;;13.35;5.60;;;;;;;0.00;67.32;99761.08;4355888;80;21171;-85
2021/03/20 08:49:08;;;;;;;11.68;4.95;;;;;;;1.01;67.51;99760.47;4359827;80;21230;-88
2021/03/20 08:55:56;;;;;;;9.55;4.08;;;;;;;1.98;66.57;99770.06;4363350;80;21159;-86
2021/03/20 09:02:19;;;;;;;12.80;4.58;;;;;;;2.90;66.21;99761.86;4343880;80;21179;-85
2021/03/20 09:08:35;;;;;;;7.87;4.08;;;;;;;2.73;64.92;99776.58;4352699;80;21198;-84
2021/03/20 09:14:41;;;;;;;10.67;3.73;;;;;;;2.14;64.05;99782.72;4362183;80;21178;-84
2021/03/20 09:20:53;;;;;;;8.03;3.00;;;;;;;2.85;63.97;99776.84;4354349;80;21164;-85
2021/03/20 09:26:59;;;;;;;11.80;5.17;;;;;;;3.34;63.17;99784.06;4352319;80;21217;-84
2021/03/20 09:33:14;;;;;;;17.73;8.13;;;;;;;2.70;61.79;99786.66;4364606;80;22437;-84
2021/03/20 09:39:42;;;;;;;17.07;8.20;;;;;;;1.98;62.89;99786.27;4353321;80;21186;-84
2021/03/20 09:45:45;;;;;;;21.30;8.98;;;;;;;1.98;63.63;99778.70;4353260;80;21213;-85
2021/03/20 09:51:58;;;;;;;17.10;8.70;;;;;;;3.68;63.18;99786.20;4358927;80;21924;-85
2021/03/20 09:58:03;;;;;;;17.80;7.80;;;;;;;3.93;60.69;99793.65;4361381;80;21671;-85
2021/03/20 10:04:50;;;;;;;16.90;8.33;;;;;;;3.36;61.74;99800.80;4352822;80;21175;-85
2021/03/20 10:10:53;;;;;;;17.95;8.38;;;;;;;3.92;61.63;99798.80;4385750;80;21302;-85
2021/03/20 10:17:08;;;;;;;16.37;7.10;;;;;;;3.25;59.72;99808.91;4356606;80;21535;-85
2021/03/20 10:23:42;;;;;;;16.07;6.95;;;;;;;2.51;59.35;99805.45;4359292;80;21226;-85
2021/03/20 10:29:44;;;;;;;17.87;8.50;;;;;;;3.07;58.94;99806.62;4353228;80;21222;-86
2021/03/20 10:35:45;;;;;;;14.63;6.85;;;;;;;4.37;59.38;99800.28;4356241;80;21214;-87
2021/03/20 10:41:49;;;;;;;20.32;9.88;;;;;;;5.81;58.78;99810.92;4354593;80;21467;-86
2021/03/20 10:48:15;;;;;;;20.80;9.30;;;;;;;4.18;57.65;99820.83;4349891;80;21198;-87
2021/03/20 10:54:25;;;;;;;24.02;9.20;;;;;;;3.48;58.13;99820.55;4376627;80;21339;-87
2021/03/20 11:00:47;;;;;;;22.30;9.00;;;;;;;2.63;57.30;99819.27;4380862;80;21201;-87
2021/03/20 11:06:54;;;;;;;17.65;7.80;;;;;;;2.38;57.84;99803.58;4379532;80;21760;-87
2021/03/20 11:13:02;;;;;;;17.60;7.62;;;;;;;2.33;57.46;99806.38;4312748;81;21229;-87
2021/03/20 11:19:14;;;;;;;15.00;6.97;;;;;;;3.22;57.40;99808.17;4308017;81;21191;-88
2021/03/20 11:25:36;;;;;;;17.40;8.10;;;;;;;4.14;57.37;99808.23;4383442;80;21688;-88
2021/03/20 11:32:04;;;;;;;19.70;9.60;;;;;;;4.47;56.04;99806.75;4390917;80;21288;-88
2021/03/20 11:38:08;;;;;;;21.60;8.98;;;;;;;3.85;55.20;99800.63;4387087;80;21166;-88
2021/03/20 11:44:26;;;;;;;21.42;9.25;;;;;;;3.55;56.27;99805.47;4305694;81;21322;-87
2021/03/20 11:50:32;;;;;;;17.10;8.48;;;;;;;4.31;55.71;99791.48;4380649;80;21335;-87
2021/03/20 11:56:38;;;;;;;14.23;7.33;;;;;;;4.24;50.45;99780.31;4384832;79;21206;-87
2021/03/20 12:02:40;;;;;;;15.50;7.90;;;;;;;4.25;53.34;99777.02;4386721;79;21186;-88
2021/03/20 12:08:54;;;;;;;17.25;7.65;;;;;;;4.39;53.66;99767.66;4365774;80;21152;-87
2021/03/20 12:15:00;;;;;;;18.67;7.67;;;;;;;4.26;52.71;99753.67;4310110;81;21143;-89
2021/03/20 12:21:06;;;;;;;18.75;8.05;;;;;;;3.72;52.16;99761.44;4290256;81;21343;-87
2021/03/20 12:27:34;;;;;;;22.20;9.00;;;;;;;3.20;51.10;99757.63;4357867;80;21326;-88
2021/03/20 12:33:56;;;;;;;20.25;8.48;;;;;;;2.55;52.92;99756.46;4298879;81;21344;-87
2021/03/20 12:39:58;;;;;;;15.68;7.45;;;;;;;2.20;51.61;99750.45;4358878;80;21679;-87
2021/03/20 12:46:04;;;;;;;23.30;9.18;;;;;;;1.98;52.38;99753.86;4310341;81;21759;-87
2021/03/20 12:52:17;;;;;;;15.98;7.12;;;;;;;2.03;51.72;99748.91;4307023;81;21767;-89
2021/03/20 12:58:18;;;;;;;14.85;6.97;;;;;;;1.83;51.90;99750.66;4308545;81;21210;-87
2021/03/20 13:04:22;;;;;;;14.80;6.20;;;;;;;1.89;52.01;99751.62;4364597;80;21160;-89
2021/03/20 13:10:24;;;;;;;16.35;7.10;;;;;;;1.93;51.72;99743.16;4393841;79;21180;-89
2021/03/20 13:16:29;;;;;;;12.28;6.40;;;;;;;1.96;50.69;99744.48;4396529;79;21113;-88
2021/03/20 13:22:32;;;;;;;16.73;7.00;;;;;;;1.79;51.07;99732.09;4395125;79;21174;-89
2021/03/20 13:28:33;;;;;;;13.55;7.17;;;;;;;1.72;50.85;99737.91;4383810;80;21174;-88
2021/03/20 13:34:35;;;;;;;13.50;5.83;;;;;;;1.88;51.45;99732.45;4312757;81;21674;-88
2021/03/20 13:40:39;;;;;;;11.48;5.50;;;;;;;2.19;50.70;99731.30;4310648;81;21659;-88
2021/03/20 13:46:42;;;;;;;12.43;5.95;;;;;;;2.32;50.58;99733.97;4306792;81;21155;-89
2021/03/20 13:52:45;;;;;;;9.70;4.35;;;;;;;2.77;49.10;99720.78;4395575;79;21172;-88
2021/03/20 13:58:47;;;;;;;9.93;4.45;;;;;;;2.94;49.36;99735.00;4394599;79;21629;-91
2021/03/20 14:04:49;;;;;;;10.18;4.33;;;;;;;2.74;47.69;99730.08;4387328;79;21190;-93
2021/03/20 14:10:53;;;;;;;12.93;5.08;;;;;;;2.21;48.53;99731.23;4327971;80;21609;-91
2021/03/20 14:16:55;;;;;;;17.82;5.22;;;;;;;2.12;48.23;99733.59;4349217;80;21206;-94
2021/03/20 14:22:57;;;;;;;29.42;10.85;;;;;;;2.14;48.98;99727.34;4337217;80;21678;-92
2021/03/20 14:28:59;;;;;;;15.35;6.22;;;;;;;2.24;48.33;99725.80;4341710;80;22349;-92
2021/03/20 14:35:31;;;;;;;12.98;4.80;;;;;;;2.00;47.34;99721.16;4261345;80;71972;-87
2021/03/20 14:41:48;;;;;;;13.50;6.08;;;;;;;1.87;47.88;99713.31;4050555;86;21184;-87
2021/03/20 14:47:50;;;;;;;19.10;8.83;;;;;;;1.89;47.59;99715.17;4126693;84;21349;-87
2021/03/20 14:53:51;;;;;;;11.70;5.03;;;;;;;1.95;47.76;99713.16;4191970;83;21184;-87
2021/03/20 15:00:24;;;;;;;13.25;6.00;;;;;;;1.96;47.65;99714.20;4203569;82;21158;-87
2021/03/20 15:07:12;;;;;;;16.52;6.08;;;;;;;2.07;47.68;99708.84;4269205;83;21312;-86
2021/03/20 15:13:21;;;;;;;16.57;5.85;;;;;;;1.83;47.31;99702.88;4037385;86;21211;-87
2021/03/20 15:19:42;;;;;;;13.03;5.87;;;;;;;1.63;47.58;99702.47;4207916;83;21207;-87
2021/03/20 15:25:44;;;;;;;17.27;6.67;;;;;;;1.37;47.49;99701.59;4180727;83;21227;-88
2021/03/20 15:32:07;;;;;;;16.97;6.92;;;;;;;1.10;47.58;99693.98;4213536;82;22053;-87
2021/03/20 15:38:27;;;;;;;21.48;7.37;;;;;;;0.95;47.65;99692.90;4191430;82;21340;-87
2021/03/20 15:44:28;;;;;;;25.00;7.22;;;;;;;0.90;47.65;99698.37;4227778;83;21186;-87
2021/03/20 15:51:12;;;;;;;18.80;6.87;;;;;;;0.74;47.46;99695.66;4199510;83;21745;-86
2021/03/20 15:57:22;;;;;;;13.75;6.95;;;;;;;0.59;47.99;99673.81;4218816;83;21304;-87
2021/03/20 16:03:50;;;;;;;13.60;6.10;;;;;;;0.65;48.05;99702.27;4215217;82;21197;-87
2021/03/20 16:09:53;;;;;;;17.37;7.00;;;;;;;0.43;47.76;99695.33;4225702;83;21186;-87
2021/03/20 16:16:04;;;;;;;18.65;6.90;;;;;;;0.28;48.84;99678.59;4213775;83;21212;-88
2021/03/20 16:22:07;;;;;;;19.65;7.62;;;;;;;0.28;48.84;99678.59;4205469;82;21962;-87
2021/03/20 16:28:29;;;;;;;17.23;7.30;;;;;;;0.42;48.52;99695.09;4223587;82;21158;-88
2021/03/20 16:45:13;;;;;;;25.87;9.50;;;;;;;0.21;49.37;99684.87;4440854;78;23661;-87
2021/03/20 16:51:28;;;;;;;26.37;10.72;;;;;;;0.13;49.46;99680.94;4407365;80;21819;-87
2021/03/20 16:57:55;;;;;;;26.55;10.63;;;;;;;0.08;48.95;99693.68;4418047;79;21184;-86
2021/03/20 17:04:24;;;;;;;26.57;10.63;;;;;;;0.00;49.59;99693.22;4426239;80;21199;-87
2021/03/20 17:10:37;;;;;;;28.33;10.27;;;;;;;-0.08;49.26;99691.16;4425740;79;21190;-86
2021/03/20 17:16:38;;;;;;;25.43;10.30;;;;;;;-0.10;48.67;99688.52;4337418;80;21256;-87
2021/03/20 17:22:40;;;;;;;43.52;15.93;;;;;;;-0.14;49.54;99676.71;4307806;81;21636;-87
2021/03/20 17:28:44;;;;;;;35.07;14.63;;;;;;;-0.19;49.34;99682.19;4296852;81;21194;-87
2021/03/20 17:34:53;;;;;;;40.07;16.40;;;;;;;-0.28;49.35;99694.64;4295803;81;21744;-87
2021/03/20 17:41:04;;;;;;;36.80;14.03;;;;;;;-0.36;49.61;99691.27;4306917;81;22122;-86
2021/03/20 17:47:04;;;;;;;32.07;12.73;;;;;;;-0.45;49.96;99691.62;4294835;82;21748;-85
2021/03/20 17:53:11;;;;;;;28.30;12.97;;;;;;;-0.55;49.91;99701.16;4286912;82;21703;-87
2021/03/20 17:59:17;;;;;;;26.70;12.50;;;;;;;-0.62;49.68;99702.84;4292077;82;21145;-86
2021/03/20 18:05:20;;;;;;;27.10;12.80;;;;;;;-0.67;49.82;99696.16;4299014;81;21207;-86
2021/03/20 18:11:21;;;;;;;31.80;14.30;;;;;;;-0.73;49.77;99694.61;4295273;81;21183;-86
2021/03/20 18:17:29;;;;;;;34.77;13.70;;;;;;;-0.77;49.90;99690.09;4297414;81;21136;-86
2021/03/20 18:23:30;;;;;;;32.70;14.17;;;;;;;-0.90;49.67;99688.06;4287415;82;21207;-86
2021/03/20 18:29:38;;;;;;;39.37;16.53;;;;;;;-1.03;50.16;99686.83;4288266;82;21188;-85
2021/03/20 18:35:42;;;;;;;41.83;17.10;;;;;;;-1.08;50.61;99686.09;4286636;82;21240;-85
2021/03/20 18:41:57;;;;;;;43.77;17.77;;;;;;;-1.17;50.21;99683.73;4307872;81;21523;-85
2021/03/20 18:47:59;;;;;;;44.90;17.30;;;;;;;-1.31;50.66;99692.98;4290206;82;21183;-85
2021/03/20 18:54:01;;;;;;;49.23;19.47;;;;;;;-1.40;50.98;99700.04;4293369;82;21674;-88
2021/03/20 19:06:31;;;;;;;66.47;22.90;;;;;;;-1.54;51.39;99704.44;4261914;82;21319;-86
2021/03/20 19:12:39;;;;;;;74.50;25.00;;;;;;;-1.61;51.79;99702.59;4265444;82;21341;-85
2021/03/20 19:19:11;;;;;;;60.70;23.80;;;;;;;-1.64;52.04;99698.59;4268202;82;21608;-86
2021/03/20 19:25:24;;;;;;;62.50;22.10;;;;;;;-1.74;53.14;99694.61;4275720;82;21588;-86
2021/03/20 19:31:28;;;;;;;55.10;22.40;;;;;;;-1.86;53.88;99697.38;4250332;82;21346;-86
2021/03/20 19:38:02;;;;;;;70.17;24.53;;;;;;;-2.02;54.27;99696.65;4271625;82;21382;-84
2021/03/20 19:44:09;;;;;;;74.53;25.30;;;;;;;-2.11;53.99;99697.50;4251552;82;21157;-84
2021/03/20 19:56:50;;;;;;;62.37;23.90;;;;;;;-2.38;54.12;99699.22;4255501;82;21207;-84
2021/03/20 20:02:55;;;;;;;65.67;24.13;;;;;;;-2.47;54.05;99692.82;4256531;82;21185;-83
2021/03/20 20:08:57;;;;;;;91.33;32.37;;;;;;;-2.58;54.43;99689.91;4255108;82;21636;-84
2021/03/20 20:15:00;;;;;;;89.47;36.07;;;;;;;-2.60;54.34;99689.36;4255485;82;21236;-83
2021/03/20 20:21:03;;;;;;;102.33;38.30;;;;;;;-2.61;54.33;99682.41;4253270;82;21320;-82
2021/03/20 20:27:09;;;;;;;91.53;35.13;;;;;;;-2.62;54.39;99675.45;4257732;82;22122;-82
2021/03/20 20:33:12;;;;;;;102.92;38.42;;;;;;;-2.66;54.14;99674.94;4253338;82;21185;-83
2021/03/20 20:39:14;;;;;;;94.13;37.07;;;;;;;-2.72;54.67;99676.00;4162035;84;21196;-81
2021/03/20 20:45:16;;;;;;;102.03;36.03;;;;;;;-2.78;55.08;99667.18;4125162;84;21970;-81
2021/03/20 20:51:20;;;;;;;98.73;35.70;;;;;;;-2.91;54.99;99670.41;4131322;84;21219;-81
2021/03/20 20:57:22;;;;;;;98.93;37.47;;;;;;;-3.01;55.54;99673.13;4124060;84;21220;-80
2021/03/20 21:03:31;;;;;;;102.50;36.70;;;;;;;-3.07;55.85;99672.87;4131597;85;21195;-81
2021/03/20 21:09:33;;;;;;;111.63;38.80;;;;;;;-3.24;56.02;99658.41;4141009;84;21185;-80
2021/03/20 21:15:35;;;;;;;109.93;37.93;;;;;;;-3.21;56.67;99657.09;4141420;85;21212;-81
2021/03/20 21:21:38;;;;;;;110.93;41.43;;;;;;;-3.26;56.83;99645.82;4130131;84;22331;-82
2021/03/20 21:27:40;;;;;;;111.27;41.90;;;;;;;-3.46;56.86;99647.73;4143179;84;21346;-81
2021/03/20 21:33:41;;;;;;;129.43;38.40;;;;;;;-3.68;57.59;99650.64;4142716;84;21161;-81
2021/03/20 21:39:43;;;;;;;121.57;39.97;;;;;;;-3.78;57.37;99644.48;4147953;84;21204;-80
2021/03/20 21:45:44;;;;;;;122.47;38.70;;;;;;;-4.02;58.05;99642.03;4143730;85;21377;-80
2021/03/20 21:51:46;;;;;;;116.17;40.17;;;;;;;-3.94;58.62;99648.20;4118482;85;21169;-81
2021/03/20 21:57:50;;;;;;;117.20;40.53;;;;;;;-3.84;58.47;99641.02;4146717;85;21355;-80
2021/03/20 22:03:52;;;;;;;117.93;41.67;;;;;;;-3.99;58.19;99638.83;4141783;85;21192;-79
2021/03/20 22:09:53;;;;;;;143.83;44.77;;;;;;;-4.08;58.71;99634.55;4138663;85;21217;-79
2021/03/20 22:15:54;;;;;;;125.63;44.83;;;;;;;-4.13;59.20;99635.05;4193407;83;21677;-79
2021/03/20 22:21:58;;;;;;;97.70;38.00;;;;;;;-4.14;59.85;99632.12;4202703;83;21188;-81
2021/03/20 22:28:01;;;;;;;117.03;42.53;;;;;;;-4.20;59.73;99625.97;4198440;83;21727;-79
2021/03/20 22:34:02;;;;;;;121.73;40.67;;;;;;;-4.15;60.71;99610.47;4195166;83;21177;-79
2021/03/20 22:40:08;;;;;;;129.13;42.20;;;;;;;-4.16;60.33;99611.52;4204885;83;21744;-80
2021/03/20 22:46:09;;;;;;;122.20;40.50;;;;;;;-4.26;60.97;99609.63;4265922;82;21175;-82
2021/03/20 22:52:11;;;;;;;121.20;42.30;;;;;;;-4.27;61.29;99601.87;4288142;82;21167;-78
2021/03/20 22:58:13;;;;;;;122.13;41.37;;;;;;;-4.29;61.64;99589.32;4284779;82;21649;-78
2021/03/20 23:04:14;;;;;;;124.87;42.37;;;;;;;-4.33;61.44;99589.56;4283663;82;21682;-78
2021/03/20 23:10:35;;;;;;;129.20;42.03;;;;;;;-4.35;61.75;99587.70;4283011;82;21161;-78
2021/03/20 23:16:43;;;;;;;107.93;36.40;;;;;;;-4.46;62.06;99582.84;4283608;82;21176;-79
2021/03/20 23:22:45;;;;;;;82.47;29.20;;;;;;;-4.52;62.44;99574.55;4284930;82;21196;-78
2021/03/20 23:28:47;;;;;;;93.13;32.43;;;;;;;-4.64;62.87;99565.98;4282226;82;21538;-77
2021/03/20 23:34:49;;;;;;;79.53;29.43;;;;;;;-4.64;62.76;99569.98;4280372;82;22041;-77
2021/03/20 23:40:50;;;;;;;89.37;31.33;;;;;;;-4.68;63.10;99564.88;4281406;82;21148;-78
2021/03/20 23:46:53;;;;;;;87.93;31.67;;;;;;;-4.77;63.06;99557.63;4256655;82;21311;-78
2021/03/20 23:52:57;;;;;;;88.83;31.67;;;;;;;-4.78;62.73;99546.16;4258074;82;21162;-77
2021/03/20 23:58:58;;;;;;;103.93;35.37;;;;;;;-4.82;63.25;99534.38;4180036;84;21795;-78
